Main page
METAR-TAF:

METAR-TAF

Airports :

Hawarden Airport

Hawarden, Wales

latitude: 53-10N, longitude: 002-59W, elevation: 10 m

Current weather observation

The report was made 1 hour and 37 minutes ago, at 22:20 UTC
Wind 8 kt from the West/Southwest
Temperature 10°C
Humidity 87%
Pressure 1028 hPa
Visibility 10 km or more
Scattered clouds at a height of 3300 ft

METAR: EGNR 192220Z 24008KT 9999 SCT033 10/08 Q1028

Time: 23:57 (23:57 UTC)

Forecast

The report was made 7 hours and 0 minutes ago, at 16:57 UTC
Forecast valid from 19 at 18 UTC to 19 at 21 UTC
Wind 8 kt from the West/Southwest
Visibility 10 km or more
Scattered clouds at a height of 2000 ft

TAF: EGNR 191657Z 1918/1921 24008KT 9999 SCT020

Weather observations and forecasts of more than 4000 airports (METAR and TAF reports).

The available stations are represented by yellow and red dots on the map.

Hover mouse over dot to see the name of the station.

Then click to see weather observations and forecasts.

To change the map : click on the green buttons with a black cross to zoom in, on the green button with a dash to zoom out, or on the green arrows for adjacent maps.


METAR-TAF: